Time;durP1;ratioP1;P1;durP2;ratioP2;P2;SDS_P1;SDS_P2;PMS_P1;PMS_P2;Temp;Humidity;BMP_temperature;BMP_pressure;BME280_temperature;BME280_humidity;BME280_pressure;Samples;Min_cycle;Max_cycle;Signal;HPM_P1;HPM_P2
2022/01/14 00:02:18;;;;;;;;;;;;;;;;;;5090172;28;19916;-59
2022/01/14 00:04:43;;;;;;;;;;;;;;;;;;5089252;28;20000;-61
2022/01/14 00:07:09;;;;;;;;;;;;;;;;;;5089919;28;19920;-62
2022/01/14 00:09:36;;;;;;;;;;;;;;;;;;5089863;28;19912;-60
2022/01/14 00:12:09;;;;;;;;;;;;;;;;;;5090450;28;19912;-58
2022/01/14 00:17:01;;;;;;;;;;;;;;;;;;5090431;28;19920;-57
2022/01/14 00:19:27;;;;;;;;;;;;;;;;;;5089978;28;20028;-58
2022/01/14 00:21:53;;;;;;;;;;;;;;;;;;5089353;28;19923;-57
2022/01/14 00:32:22;;;;;;;;;;;;;;;;;;5089016;28;20017;-62
2022/01/14 00:34:48;;;;;;;;;;;;;;;;;;5088057;28;20401;-59
2022/01/14 00:37:14;;;;;;;;;;;;;;;;;;5089599;28;19912;-60
2022/01/14 00:39:40;;;;;;;;;;;;;;;;;;5089523;28;20394;-58
2022/01/14 00:42:06;;;;;;;;;;;;;;;;;;5089719;28;19958;-56
2022/01/14 00:44:32;;;;;;;;;;;;;;;;;;5102852;28;20393;-58
2022/01/14 00:46:58;;;;;;;;;;;;;;;;;;5110108;28;19912;-58
2022/01/14 00:49:23;;;;;;;;;;;;;;;;;;5109897;28;20287;-58
2022/01/14 00:51:49;;;;;;;;;;;;;;;;;;5109733;28;19911;-56
2022/01/14 00:54:17;;;;;;;;;;;;;;;;;;5081103;23;20747;-67
2022/01/14 00:59:15;;;;;;;;;;;;;;;;;;5051980;28;19966;-66
2022/01/14 01:01:42;;;;;;;;;;;;;;;;;;5051789;28;19924;-64
2022/01/14 01:04:08;;;;;;;;;;;;;;;;;;5034015;28;20292;-65
2022/01/14 01:06:34;;;;;;;;;;;;;;;;;;5033342;28;19916;-65
2022/01/14 01:09:00;;;;;;;;;;;;;;;;;;5033193;28;19909;-65
2022/01/14 01:11:31;;;;;;;;;;;;;;;;;;5050955;28;19908;-66
2022/01/14 01:14:10;;;;;;;;;;;;;;;;;;5050141;28;20387;-65
2022/01/14 01:16:36;;;;;;;;;;;;;;;;;;5052633;28;19916;-66
2022/01/14 01:19:02;;;;;;;;;;;;;;;;;;5037110;28;20364;-66
2022/01/14 01:21:28;;;;;;;;;;;;;;;;;;5037307;28;19967;-65
2022/01/14 01:23:54;;;;;;;;;;;;;;;;;;5037887;28;19980;-65
2022/01/14 01:26:28;;;;;;;;;;;;;;;;;;5056426;28;19909;-66
2022/01/14 01:31:35;;;;;;;;;;;;;;;;;;5057034;28;19909;-67
2022/01/14 01:34:00;;;;;;;;;;;;;;;;;;5037907;28;19948;-67
2022/01/14 01:36:26;;;;;;;;;;;;;;;;;;5055289;28;19916;-66
2022/01/14 01:38:52;;;;;;;;;;;;;;;;;;5055520;28;19909;-65
2022/01/14 01:41:18;;;;;;;;;;;;;;;;;;5055473;28;20371;-65
2022/01/14 01:43:50;;;;;;;;;;;;;;;;;;5037442;28;19908;-66
2022/01/14 01:46:16;;;;;;;;;;;;;;;;;;5055275;28;19912;-64
2022/01/14 01:48:42;;;;;;;;;;;;;;;;;;5055027;28;19949;-66
2022/01/14 01:51:08;;;;;;;;;;;;;;;;;;5055268;28;19909;-66
2022/01/14 01:53:34;;;;;;;;;;;;;;;;;;5054324;28;19932;-64
2022/01/14 01:56:00;;;;;;;;;;;;;;;;;;5053737;28;19917;-59
2022/01/14 01:58:26;;;;;;;;;;;;;;;;;;5036137;28;19994;-64
2022/01/14 02:00:52;;;;;;;;;;;;;;;;;;5053635;28;20322;-65
2022/01/14 02:03:18;;;;;;;;;;;;;;;;;;5035956;28;19916;-64
2022/01/14 02:05:44;;;;;;;;;;;;;;;;;;5053810;28;20017;-64
2022/01/14 02:08:09;;;;;;;;;;;;;;;;;;5053544;28;20061;-64
2022/01/14 02:10:37;;;;;;;;;;;;;;;;;;5053598;28;19912;-63
2022/01/14 02:13:03;;;;;;;;;;;;;;;;;;5053362;28;19913;-63
2022/01/14 02:16:01;;;;;;;;;;;;;;;;;;5053617;28;20328;-64
2022/01/14 02:18:30;;;;;;;;;;;;;;;;;;5052995;28;19970;-63
2022/01/14 02:23:45;;;;;;;;;;;;;;;;;;5053434;28;19920;-59
2022/01/14 02:26:11;;;;;;;;;;;;;;;;;;5054805;28;20376;-65
2022/01/14 02:28:37;;;;;;;;;;;;;;;;;;5053713;28;19924;-63
2022/01/14 02:31:03;;;;;;;;;;;;;;;;;;5054583;28;19909;-66
2022/01/14 02:33:30;;;;;;;;;;;;;;;;;;5054236;28;20254;-66
2022/01/14 02:35:55;;;;;;;;;;;;;;;;;;5053887;28;20043;-65
2022/01/14 02:38:21;;;;;;;;;;;;;;;;;;5053851;28;19982;-64
2022/01/14 02:40:47;;;;;;;;;;;;;;;;;;5053705;28;19917;-65
2022/01/14 02:43:15;;;;;;;;;;;;;;;;;;5053803;28;20269;-65
2022/01/14 02:45:41;;;;;;;;;;;;;;;;;;5053904;28;19912;-65
2022/01/14 02:48:07;;;;;;;;;;;;;;;;;;5053768;28;20284;-65
2022/01/14 02:50:39;;;;;;;;;;;;;;;;;;5053671;28;19909;-64
2022/01/14 02:53:24;;;;;;;;;;;;;;;;;;5035546;28;19931;-65
2022/01/14 02:55:50;;;;;;;;;;;;;;;;;;5054516;28;19917;-66
2022/01/14 02:58:16;;;;;;;;;;;;;;;;;;5053446;28;19920;-65
2022/01/14 03:00:41;;;;;;;;;;;;;;;;;;5053578;28;19939;-65
2022/01/14 03:03:07;;;;;;;;;;;;;;;;;;5035469;28;19910;-65
2022/01/14 03:05:33;;;;;;;;;;;;;;;;;;5035432;28;19909;-65
2022/01/14 03:07:59;;;;;;;;;;;;;;;;;;5053092;28;20054;-62
2022/01/14 03:10:25;;;;;;;;;;;;;;;;;;5053512;28;19924;-64
2022/01/14 03:12:51;;;;;;;;;;;;;;;;;;5035178;28;19944;-65
2022/01/14 03:15:17;;;;;;;;;;;;;;;;;;5053278;28;20002;-65
2022/01/14 03:17:43;;;;;;;;;;;;;;;;;;5053417;28;19909;-65
2022/01/14 03:20:11;;;;;;;;;;;;;;;;;;5053354;28;19909;-65
2022/01/14 03:22:37;;;;;;;;;;;;;;;;;;5034898;28;20011;-64
2022/01/14 03:27:47;;;;;;;;;;;;;;;;;;5052528;28;20372;-66
2022/01/14 03:30:13;;;;;;;;;;;;;;;;;;5052336;28;19936;-65
2022/01/14 03:32:39;;;;;;;;;;;;;;;;;;5052224;28;19933;-64
2022/01/14 03:35:05;;;;;;;;;;;;;;;;;;5051855;28;20391;-65
2022/01/14 03:37:30;;;;;;;;;;;;;;;;;;5033968;28;19909;-65
2022/01/14 03:39:56;;;;;;;;;;;;;;;;;;5034035;28;20280;-65
2022/01/14 03:42:22;;;;;;;;;;;;;;;;;;5033669;28;19963;-64
2022/01/14 03:44:48;;;;;;;;;;;;;;;;;;5051805;28;19947;-65
2022/01/14 03:47:14;;;;;;;;;;;;;;;;;;5051922;28;20004;-65
2022/01/14 03:49:40;;;;;;;;;;;;;;;;;;5033942;28;19909;-65
2022/01/14 03:52:06;;;;;;;;;;;;;;;;;;5051647;28;19921;-67
2022/01/14 03:54:32;;;;;;;;;;;;;;;;;;5051070;28;19913;-65
2022/01/14 03:56:57;;;;;;;;;;;;;;;;;;5033922;28;19909;-65
2022/01/14 03:59:23;;;;;;;;;;;;;;;;;;5051492;28;19912;-65
2022/01/14 04:01:49;;;;;;;;;;;;;;;;;;5051551;28;19913;-65
2022/01/14 04:04:15;;;;;;;;;;;;;;;;;;5051500;28;19912;-65
2022/01/14 04:06:41;;;;;;;;;;;;;;;;;;5051529;28;19944;-65
2022/01/14 04:09:07;;;;;;;;;;;;;;;;;;5051435;28;19955;-64
2022/01/14 04:11:34;;;;;;;;;;;;;;;;;;5051637;28;20387;-64
2022/01/14 04:14:08;;;;;;;;;;;;;;;;;;5032910;28;19908;-65
2022/01/14 04:16:34;;;;;;;;;;;;;;;;;;5051529;28;19963;-65
2022/01/14 04:19:00;;;;;;;;;;;;;;;;;;5051393;28;19909;-65
2022/01/14 04:21:26;;;;;;;;;;;;;;;;;;5051590;28;19971;-65
2022/01/14 04:23:52;;;;;;;;;;;;;;;;;;5051085;28;20380;-66
2022/01/14 04:26:17;;;;;;;;;;;;;;;;;;5050914;28;20313;-65
2022/01/14 04:28:43;;;;;;;;;;;;;;;;;;5033289;28;19954;-64
2022/01/14 04:31:09;;;;;;;;;;;;;;;;;;5050806;28;19916;-65
2022/01/14 04:33:35;;;;;;;;;;;;;;;;;;5050536;28;19913;-66
2022/01/14 04:36:01;;;;;;;;;;;;;;;;;;5050863;28;19916;-63
2022/01/14 04:38:27;;;;;;;;;;;;;;;;;;5050895;28;19913;-65
2022/01/14 04:40:53;;;;;;;;;;;;;;;;;;5050978;28;20043;-65
2022/01/14 04:43:20;;;;;;;;;;;;;;;;;;5050563;28;19935;-64
2022/01/14 04:46:02;;;;;;;;;;;;;;;;;;5050907;28;19912;-65
2022/01/14 04:48:28;;;;;;;;;;;;;;;;;;5050945;28;19967;-66
2022/01/14 04:50:54;;;;;;;;;;;;;;;;;;5051625;28;19905;-64
2022/01/14 04:53:21;;;;;;;;;;;;;;;;;;5054855;28;20007;-65
2022/01/14 04:55:47;;;;;;;;;;;;;;;;;;5054432;28;20430;-66
2022/01/14 04:58:13;;;;;;;;;;;;;;;;;;5055069;28;20387;-66
2022/01/14 05:00:39;;;;;;;;;;;;;;;;;;5055372;28;19905;-67
2022/01/14 05:03:05;;;;;;;;;;;;;;;;;;5055447;28;19934;-66
2022/01/14 05:05:34;;;;;;;;;;;;;;;;;;5055165;28;19908;-66
2022/01/14 05:08:00;;;;;;;;;;;;;;;;;;5037012;28;19909;-66
2022/01/14 05:12:55;;;;;;;;;;;;;;;;;;5055086;28;19917;-66
2022/01/14 05:15:21;;;;;;;;;;;;;;;;;;5054500;28;19908;-66
2022/01/14 05:17:47;;;;;;;;;;;;;;;;;;5054752;28;19913;-66
2022/01/14 05:20:13;;;;;;;;;;;;;;;;;;5054468;28;20265;-66
2022/01/14 05:22:39;;;;;;;;;;;;;;;;;;5054167;28;19951;-66
2022/01/14 05:25:04;;;;;;;;;;;;;;;;;;5054350;28;19919;-66
2022/01/14 05:27:30;;;;;;;;;;;;;;;;;;5054551;28;20025;-66
2022/01/14 05:29:56;;;;;;;;;;;;;;;;;;5054660;28;19908;-65
2022/01/14 05:32:23;;;;;;;;;;;;;;;;;;5054016;28;19991;-65
2022/01/14 05:34:49;;;;;;;;;;;;;;;;;;5036065;28;19909;-65
2022/01/14 05:37:15;;;;;;;;;;;;;;;;;;5036129;28;20012;-65
2022/01/14 05:39:41;;;;;;;;;;;;;;;;;;5054352;28;20374;-65
2022/01/14 05:42:07;;;;;;;;;;;;;;;;;;5053807;28;19913;-65
2022/01/14 05:44:33;;;;;;;;;;;;;;;;;;5053981;28;20322;-66
2022/01/14 05:46:59;;;;;;;;;;;;;;;;;;5053686;28;19905;-65
2022/01/14 05:49:25;;;;;;;;;;;;;;;;;;5053881;28;20299;-65
2022/01/14 05:51:51;;;;;;;;;;;;;;;;;;5053789;28;19996;-65
2022/01/14 05:54:17;;;;;;;;;;;;;;;;;;5035358;28;19913;-64
2022/01/14 05:56:42;;;;;;;;;;;;;;;;;;5053352;28;19908;-65
2022/01/14 05:59:08;;;;;;;;;;;;;;;;;;5035300;28;19963;-65
2022/01/14 06:01:34;;;;;;;;;;;;;;;;;;5035316;28;20071;-64
2022/01/14 06:04:00;;;;;;;;;;;;;;;;;;5052140;28;20431;-64
2022/01/14 06:06:26;;;;;;;;;;;;;;;;;;5053291;28;19909;-65
2022/01/14 06:08:52;;;;;;;;;;;;;;;;;;5053323;28;19909;-64
2022/01/14 06:11:18;;;;;;;;;;;;;;;;;;5053276;28;19967;-64
2022/01/14 06:13:44;;;;;;;;;;;;;;;;;;5053054;28;20388;-64
2022/01/14 06:16:09;;;;;;;;;;;;;;;;;;5053306;28;19915;-64
2022/01/14 06:18:35;;;;;;;;;;;;;;;;;;5052924;28;19913;-65
2022/01/14 06:21:01;;;;;;;;;;;;;;;;;;5052830;28;19912;-63
2022/01/14 06:23:27;;;;;;;;;;;;;;;;;;5052753;28;19923;-64
2022/01/14 06:25:53;;;;;;;;;;;;;;;;;;5035326;28;20255;-65
2022/01/14 06:28:19;;;;;;;;;;;;;;;;;;5052900;28;19957;-64
2022/01/14 06:30:45;;;;;;;;;;;;;;;;;;5052750;28;20407;-65
2022/01/14 06:33:10;;;;;;;;;;;;;;;;;;5034766;28;19916;-66
2022/01/14 06:35:36;;;;;;;;;;;;;;;;;;5047838;28;19909;-65
2022/01/14 06:38:02;;;;;;;;;;;;;;;;;;5052305;28;19916;-66
2022/01/14 06:40:28;;;;;;;;;;;;;;;;;;5052473;28;19913;-64
2022/01/14 06:42:54;;;;;;;;;;;;;;;;;;5034129;28;20003;-64
2022/01/14 06:45:20;;;;;;;;;;;;;;;;;;5052309;28;19920;-65
2022/01/14 06:47:46;;;;;;;;;;;;;;;;;;5052302;28;19909;-65
2022/01/14 06:50:12;;;;;;;;;;;;;;;;;;5052284;28;19916;-65
2022/01/14 06:52:37;;;;;;;;;;;;;;;;;;5051800;28;19948;-63
2022/01/14 06:55:03;;;;;;;;;;;;;;;;;;5067091;22;20273;-63
2022/01/14 06:57:29;;;;;;;;;;;;;;;;;;5053594;28;19909;-60
2022/01/14 06:59:55;;;;;;;;;;;;;;;;;;5053215;28;19963;-64
2022/01/14 07:02:21;;;;;;;;;;;;;;;;;;5053175;28;19913;-62
2022/01/14 07:04:47;;;;;;;;;;;;;;;;;;5053233;28;20384;-62
2022/01/14 07:07:13;;;;;;;;;;;;;;;;;;5053133;28;20011;-61
2022/01/14 07:09:56;;;;;;;;;;;;;;;;;;5051773;28;20320;-62
2022/01/14 07:12:22;;;;;;;;;;;;;;;;;;5051360;28;20321;-64
2022/01/14 07:14:47;;;;;;;;;;;;;;;;;;5051089;28;19961;-64
2022/01/14 07:17:13;;;;;;;;;;;;;;;;;;5053188;28;19962;-62
2022/01/14 07:19:39;;;;;;;;;;;;;;;;;;5052842;28;19909;-64
2022/01/14 07:22:05;;;;;;;;;;;;;;;;;;5052897;28;19978;-62
2022/01/14 07:24:31;;;;;;;;;;;;;;;;;;5052780;28;19931;-64
2022/01/14 07:26:57;;;;;;;;;;;;;;;;;;5052799;28;19909;-63
2022/01/14 07:29:23;;;;;;;;;;;;;;;;;;5052723;28;19913;-63
2022/01/14 07:31:50;;;;;;;;;;;;;;;;;;5052753;28;19909;-62
2022/01/14 07:34:16;;;;;;;;;;;;;;;;;;5052188;28;19951;-62
2022/01/14 07:36:42;;;;;;;;;;;;;;;;;;5052250;28;20315;-62
2022/01/14 07:39:08;;;;;;;;;;;;;;;;;;5051176;28;19905;-62
2022/01/14 07:41:34;;;;;;;;;;;;;;;;;;5051330;28;20259;-63
2022/01/14 07:44:01;;;;;;;;;;;;;;;;;;5052259;28;19939;-61
2022/01/14 07:46:26;;;;;;;;;;;;;;;;;;5051067;28;19972;-63
2022/01/14 07:48:52;;;;;;;;;;;;;;;;;;5052944;28;19912;-61
2022/01/14 07:51:18;;;;;;;;;;;;;;;;;;5052275;28;19909;-61
2022/01/14 07:53:44;;;;;;;;;;;;;;;;;;5052519;28;19909;-63
2022/01/14 07:56:12;;;;;;;;;;;;;;;;;;5052391;28;19921;-61
2022/01/14 07:58:38;;;;;;;;;;;;;;;;;;5051185;28;19952;-64
2022/01/14 08:01:04;;;;;;;;;;;;;;;;;;5052168;28;19967;-62
2022/01/14 08:03:30;;;;;;;;;;;;;;;;;;5052077;28;19912;-62
2022/01/14 08:05:58;;;;;;;;;;;;;;;;;;5052169;28;20306;-63
2022/01/14 08:08:24;;;;;;;;;;;;;;;;;;5051008;28;19967;-63
2022/01/14 08:10:49;;;;;;;;;;;;;;;;;;5052316;28;20350;-61
2022/01/14 08:13:15;;;;;;;;;;;;;;;;;;5050822;28;19909;-63
2022/01/14 08:15:41;;;;;;;;;;;;;;;;;;5050981;28;20299;-63
2022/01/14 08:18:07;;;;;;;;;;;;;;;;;;5051231;28;19913;-63
2022/01/14 08:20:33;;;;;;;;;;;;;;;;;;5051019;28;20380;-61
2022/01/14 08:22:59;;;;;;;;;;;;;;;;;;5052336;28;19931;-63
2022/01/14 08:25:25;;;;;;;;;;;;;;;;;;5050306;28;20007;-61
2022/01/14 08:27:51;;;;;;;;;;;;;;;;;;5052037;28;20008;-63
2022/01/14 08:30:17;;;;;;;;;;;;;;;;;;5051960;28;20406;-61
2022/01/14 08:32:43;;;;;;;;;;;;;;;;;;5051773;28;19909;-63
2022/01/14 08:35:08;;;;;;;;;;;;;;;;;;5051704;28;20305;-61
2022/01/14 08:37:34;;;;;;;;;;;;;;;;;;5050686;28;20087;-61
2022/01/14 08:40:00;;;;;;;;;;;;;;;;;;5052153;28;19913;-58
2022/01/14 08:42:26;;;;;;;;;;;;;;;;;;5050085;28;20015;-57
2022/01/14 08:44:52;;;;;;;;;;;;;;;;;;5050301;28;19955;-59
2022/01/14 08:47:18;;;;;;;;;;;;;;;;;;5050457;28;20256;-59
2022/01/14 08:49:44;;;;;;;;;;;;;;;;;;5050442;28;19915;-58
2022/01/14 08:52:10;;;;;;;;;;;;;;;;;;5051810;28;19921;-57
2022/01/14 08:54:36;;;;;;;;;;;;;;;;;;5051537;28;19932;-59
2022/01/14 08:57:02;;;;;;;;;;;;;;;;;;5051819;28;20355;-57
2022/01/14 08:59:28;;;;;;;;;;;;;;;;;;5050202;28;19909;-58
2022/01/14 09:01:54;;;;;;;;;;;;;;;;;;5050148;28;20438;-58
2022/01/14 09:04:20;;;;;;;;;;;;;;;;;;5051124;28;19920;-58
2022/01/14 09:06:46;;;;;;;;;;;;;;;;;;5051613;28;19915;-59
2022/01/14 09:09:12;;;;;;;;;;;;;;;;;;5051817;28;19909;-53
2022/01/14 09:11:37;;;;;;;;;;;;;;;;;;5052055;28;19952;-52
2022/01/14 09:14:03;;;;;;;;;;;;;;;;;;5051672;28;20411;-57
2022/01/14 09:16:29;;;;;;;;;;;;;;;;;;5051864;28;20411;-58
2022/01/14 09:18:55;;;;;;;;;;;;;;;;;;5052401;28;19916;-53
2022/01/14 09:21:21;;;;;;;;;;;;;;;;;;5050260;28;20384;-56
2022/01/14 09:24:03;;;;;;;;;;;;;;;;;;5051466;28;20020;-58
2022/01/14 09:26:29;;;;;;;;;;;;;;;;;;5050293;28;19908;-56
2022/01/14 09:28:55;;;;;;;;;;;;;;;;;;5050375;28;20261;-58
2022/01/14 09:31:21;;;;;;;;;;;;;;;;;;5050210;28;19909;-59
2022/01/14 09:33:47;;;;;;;;;;;;;;;;;;5050049;28;20280;-59
2022/01/14 09:36:13;;;;;;;;;;;;;;;;;;5051828;28;19948;-59
2022/01/14 09:38:38;;;;;;;;;;;;;;;;;;5054956;28;19909;-61
2022/01/14 09:41:04;;;;;;;;;;;;;;;;;;5055042;28;19966;-61
2022/01/14 09:43:36;;;;;;;;;;;;;;;;;;5055288;28;19912;-60
2022/01/14 09:46:02;;;;;;;;;;;;;;;;;;5055206;28;19916;-59
2022/01/14 09:48:28;;;;;;;;;;;;;;;;;;5055264;28;19909;-59
2022/01/14 09:50:54;;;;;;;;;;;;;;;;;;5055220;28;19909;-61
2022/01/14 09:53:20;;;;;;;;;;;;;;;;;;5054824;28;20376;-60
2022/01/14 09:55:46;;;;;;;;;;;;;;;;;;5054350;28;20050;-60
2022/01/14 09:58:12;;;;;;;;;;;;;;;;;;5054256;28;19908;-61
2022/01/14 10:00:38;;;;;;;;;;;;;;;;;;5053799;28;19927;-59
2022/01/14 10:03:04;;;;;;;;;;;;;;;;;;5054401;28;19919;-60
2022/01/14 10:05:30;;;;;;;;;;;;;;;;;;5054111;28;19975;-60
2022/01/14 10:07:56;;;;;;;;;;;;;;;;;;5054814;28;20087;-59
2022/01/14 10:10:22;;;;;;;;;;;;;;;;;;5054497;28;19908;-61
2022/01/14 10:12:48;;;;;;;;;;;;;;;;;;5054784;28;20377;-62
2022/01/14 10:15:14;;;;;;;;;;;;;;;;;;5053075;28;19965;-60
2022/01/14 10:17:41;;;;;;;;;;;;;;;;;;5054459;28;19913;-62
2022/01/14 10:20:08;;;;;;;;;;;;;;;;;;5053234;28;19909;-56
2022/01/14 10:22:34;;;;;;;;;;;;;;;;;;5052904;28;20391;-59
2022/01/14 10:25:00;;;;;;;;;;;;;;;;;;5054325;28;19951;-57
2022/01/14 10:27:26;;;;;;;;;;;;;;;;;;5053425;28;19978;-61
2022/01/14 10:29:52;;;;;;;;;;;;;;;;;;5054411;28;19909;-61
2022/01/14 10:32:19;;;;;;;;;;;;;;;;;;5053808;28;19912;-59
2022/01/14 10:34:45;;;;;;;;;;;;;;;;;;5054534;28;20438;-59
2022/01/14 10:37:11;;;;;;;;;;;;;;;;;;5057885;28;19909;-57
2022/01/14 10:39:36;;;;;;;;;;;;;;;;;;5073907;28;19927;-54
2022/01/14 10:42:02;;;;;;;;;;;;;;;;;;5073858;28;19916;-55
2022/01/14 10:44:28;;;;;;;;;;;;;;;;;;5074314;28;19909;-58
2022/01/14 10:46:54;;;;;;;;;;;;;;;;;;5072788;28;19909;-60
2022/01/14 10:49:20;;;;;;;;;;;;;;;;;;5073619;28;19919;-59
2022/01/14 10:51:47;;;;;;;;;;;;;;;;;;5074085;28;19912;-56
2022/01/14 10:54:12;;;;;;;;;;;;;;;;;;5072071;28;19909;-60
2022/01/14 10:56:38;;;;;;;;;;;;;;;;;;5073779;28;20008;-59
2022/01/14 10:59:04;;;;;;;;;;;;;;;;;;5070531;28;19913;-56
2022/01/14 11:01:31;;;;;;;;;;;;;;;;;;5073845;28;19917;-60
2022/01/14 11:03:57;;;;;;;;;;;;;;;;;;5073807;28;19916;-59
2022/01/14 11:06:23;;;;;;;;;;;;;;;;;;5074403;28;19909;-58
2022/01/14 11:08:49;;;;;;;;;;;;;;;;;;5073391;28;19984;-60
2022/01/14 11:11:15;;;;;;;;;;;;;;;;;;5073287;28;19909;-61
2022/01/14 11:13:41;;;;;;;;;;;;;;;;;;5071814;28;19908;-57
2022/01/14 11:16:06;;;;;;;;;;;;;;;;;;5073598;28;20011;-59
2022/01/14 11:18:32;;;;;;;;;;;;;;;;;;5072169;28;19909;-56
2022/01/14 11:23:43;;;;;;;;;;;;;;;;;;5073368;28;19915;-57
2022/01/14 11:26:09;;;;;;;;;;;;;;;;;;5073117;28;19908;-59
2022/01/14 11:28:35;;;;;;;;;;;;;;;;;;5073213;28;19908;-56
2022/01/14 11:31:01;;;;;;;;;;;;;;;;;;5073088;28;19908;-57
2022/01/14 11:33:27;;;;;;;;;;;;;;;;;;5072473;28;20287;-56
2022/01/14 11:35:53;;;;;;;;;;;;;;;;;;5066600;28;19913;-59
2022/01/14 11:38:19;;;;;;;;;;;;;;;;;;5051918;28;20388;-60
2022/01/14 11:40:44;;;;;;;;;;;;;;;;;;5051507;28;19919;-59
2022/01/14 11:43:10;;;;;;;;;;;;;;;;;;5053138;28;19909;-59
2022/01/14 11:45:36;;;;;;;;;;;;;;;;;;5052181;28;20284;-58
2022/01/14 11:48:03;;;;;;;;;;;;;;;;;;5053039;28;19952;-60
2022/01/14 11:50:29;;;;;;;;;;;;;;;;;;5050803;28;20376;-52
2022/01/14 11:52:57;;;;;;;;;;;;;;;;;;5051091;28;19909;-60
2022/01/14 11:55:23;;;;;;;;;;;;;;;;;;5052726;28;19923;-62
2022/01/14 11:57:49;;;;;;;;;;;;;;;;;;5052805;28;19913;-56
2022/01/14 12:00:15;;;;;;;;;;;;;;;;;;5052882;28;20353;-57
2022/01/14 12:02:41;;;;;;;;;;;;;;;;;;5052483;28;19920;-59
2022/01/14 12:05:07;;;;;;;;;;;;;;;;;;5052746;28;20355;-60
2022/01/14 12:07:33;;;;;;;;;;;;;;;;;;5051142;28;19913;-58
2022/01/14 12:09:59;;;;;;;;;;;;;;;;;;5052088;28;19916;-58
2022/01/14 12:12:28;;;;;;;;;;;;;;;;;;5052087;28;20289;-58
2022/01/14 12:14:59;;;;;;;;;;;;;;;;;;5052108;28;19971;-58
2022/01/14 12:17:25;;;;;;;;;;;;;;;;;;5051065;28;19908;-62
2022/01/14 12:19:51;;;;;;;;;;;;;;;;;;5052347;28;19951;-60
2022/01/14 12:22:17;;;;;;;;;;;;;;;;;;5050460;28;19912;-59
2022/01/14 12:24:43;;;;;;;;;;;;;;;;;;5049394;28;19917;-57
2022/01/14 12:27:12;;;;;;;;;;;;;;;;;;5037082;28;19909;-59
2022/01/14 12:29:38;;;;;;;;;;;;;;;;;;5043933;28;20328;-58
2022/01/14 12:32:04;;;;;;;;;;;;;;;;;;5029685;28;19917;-59
2022/01/14 12:34:30;;;;;;;;;;;;;;;;;;5039972;28;19976;-61
2022/01/14 12:36:55;;;;;;;;;;;;;;;;;;5037215;28;20338;-61
2022/01/14 12:39:24;;;;;;;;;;;;;;;;;;5029578;28;19913;-55
2022/01/14 12:41:50;;;;;;;;;;;;;;;;;;5029893;28;19921;-61
2022/01/14 12:44:16;;;;;;;;;;;;;;;;;;5049448;28;19923;-61
2022/01/14 12:49:10;;;;;;;;;;;;;;;;;;5050255;28;19913;-55
2022/01/14 12:51:36;;;;;;;;;;;;;;;;;;5049294;28;19967;-61
2022/01/14 12:54:04;;;;;;;;;;;;;;;;;;5048793;28;19913;-62
2022/01/14 12:56:30;;;;;;;;;;;;;;;;;;5083230;22;19960;-64
2022/01/14 12:58:56;;;;;;;;;;;;;;;;;;5066753;28;20018;-61
2022/01/14 13:01:22;;;;;;;;;;;;;;;;;;5068334;28;20341;-62
2022/01/14 13:03:48;;;;;;;;;;;;;;;;;;5069828;28;19913;-62
2022/01/14 13:06:14;;;;;;;;;;;;;;;;;;5039420;28;19909;-62
2022/01/14 13:08:40;;;;;;;;;;;;;;;;;;5050261;28;19909;-60
2022/01/14 13:11:11;;;;;;;;;;;;;;;;;;5050554;28;19909;-64
2022/01/14 13:13:37;;;;;;;;;;;;;;;;;;5053660;28;19908;-58
2022/01/14 13:16:04;;;;;;;;;;;;;;;;;;5054115;28;20248;-58
2022/01/14 13:18:37;;;;;;;;;;;;;;;;;;5036343;28;19944;-61
2022/01/14 13:21:03;;;;;;;;;;;;;;;;;;5057860;28;19913;-62
2022/01/14 13:23:28;;;;;;;;;;;;;;;;;;5036143;28;19932;-63
2022/01/14 13:25:54;;;;;;;;;;;;;;;;;;5036005;28;19915;-62
2022/01/14 13:28:20;;;;;;;;;;;;;;;;;;5054129;28;19913;-64
2022/01/14 13:30:46;;;;;;;;;;;;;;;;;;5053929;28;19916;-63
2022/01/14 13:33:13;;;;;;;;;;;;;;;;;;5036232;28;19908;-63
2022/01/14 13:35:39;;;;;;;;;;;;;;;;;;5053698;28;20325;-62
2022/01/14 13:38:05;;;;;;;;;;;;;;;;;;5053973;28;19947;-61
2022/01/14 13:40:31;;;;;;;;;;;;;;;;;;5053877;28;19948;-62
2022/01/14 13:42:57;;;;;;;;;;;;;;;;;;5036987;28;19935;-62
2022/01/14 13:45:23;;;;;;;;;;;;;;;;;;5036250;28;20046;-62
2022/01/14 13:47:57;;;;;;;;;;;;;;;;;;5035972;28;19975;-62
2022/01/14 13:50:23;;;;;;;;;;;;;;;;;;4702548;28;10000141;-62
2022/01/14 13:52:49;;;;;;;;;;;;;;;;;;5050676;28;19912;-62
2022/01/14 13:55:15;;;;;;;;;;;;;;;;;;5050440;28;19970;-63
2022/01/14 13:57:41;;;;;;;;;;;;;;;;;;5050660;28;19921;-62
2022/01/14 14:00:07;;;;;;;;;;;;;;;;;;5050492;28;19909;-62
2022/01/14 14:02:33;;;;;;;;;;;;;;;;;;5050104;28;19913;-64
2022/01/14 14:04:59;;;;;;;;;;;;;;;;;;5050465;28;19917;-63
2022/01/14 14:07:26;;;;;;;;;;;;;;;;;;5032369;28;19913;-64
2022/01/14 14:10:06;;;;;;;;;;;;;;;;;;5050455;28;19940;-61
2022/01/14 14:17:46;;;;;;;;;;;;;;;;;;5053141;28;19915;-62
2022/01/14 14:20:11;;;;;;;;;;;;;;;;;;5052951;28;19909;-62
2022/01/14 14:22:39;;;;;;;;;;;;;;;;;;5053148;28;19913;-62
2022/01/14 14:25:14;;;;;;;;;;;;;;;;;;5051788;28;19956;-62
2022/01/14 14:27:40;;;;;;;;;;;;;;;;;;5056755;28;19913;-61
2022/01/14 14:30:06;;;;;;;;;;;;;;;;;;5052665;28;19944;-63
2022/01/14 14:32:34;;;;;;;;;;;;;;;;;;5052716;28;19908;-60
2022/01/14 14:35:00;;;;;;;;;;;;;;;;;;5052665;28;19909;-62
2022/01/14 14:37:26;;;;;;;;;;;;;;;;;;5052942;28;19909;-64
2022/01/14 14:39:52;;;;;;;;;;;;;;;;;;5034965;28;19959;-64
2022/01/14 14:42:18;;;;;;;;;;;;;;;;;;5052490;28;20372;-63
2022/01/14 14:44:44;;;;;;;;;;;;;;;;;;5053086;28;19909;-63
2022/01/14 14:47:10;;;;;;;;;;;;;;;;;;5034945;28;19909;-63
2022/01/14 14:49:36;;;;;;;;;;;;;;;;;;5034675;28;19909;-58
2022/01/14 14:52:02;;;;;;;;;;;;;;;;;;5052584;28;19913;-59
2022/01/14 14:54:28;;;;;;;;;;;;;;;;;;5052055;28;19916;-59
2022/01/14 14:56:54;;;;;;;;;;;;;;;;;;5052502;28;19916;-62
2022/01/14 14:59:20;;;;;;;;;;;;;;;;;;5052594;28;19974;-56
2022/01/14 15:01:45;;;;;;;;;;;;;;;;;;5052497;28;19913;-62
2022/01/14 15:04:11;;;;;;;;;;;;;;;;;;5051452;28;19909;-62
2022/01/14 15:06:37;;;;;;;;;;;;;;;;;;5034488;28;19986;-63
2022/01/14 15:09:03;;;;;;;;;;;;;;;;;;5032557;28;19909;-63
2022/01/14 15:11:29;;;;;;;;;;;;;;;;;;5032434;28;19916;-62
2022/01/14 15:13:55;;;;;;;;;;;;;;;;;;5031868;28;20012;-61
2022/01/14 15:16:46;;;;;;;;;;;;;;;;;;5031246;28;19905;-60
2022/01/14 15:19:10;;;;;;;;;;;;;;;;;;4689635;28;10000094;-63
2022/01/14 15:21:36;;;;;;;;;;;;;;;;;;5048400;28;19917;-58
2022/01/14 15:24:02;;;;;;;;;;;;;;;;;;5048263;28;19916;-61
2022/01/14 15:26:28;;;;;;;;;;;;;;;;;;5048408;28;19928;-57
2022/01/14 15:28:53;;;;;;;;;;;;;;;;;;5048743;28;19937;-60
2022/01/14 15:31:19;;;;;;;;;;;;;;;;;;5048475;28;19989;-57
2022/01/14 15:33:45;;;;;;;;;;;;;;;;;;5030306;28;19912;-62
2022/01/14 15:36:11;;;;;;;;;;;;;;;;;;5048327;28;19999;-61
2022/01/14 15:38:37;;;;;;;;;;;;;;;;;;5048908;28;19967;-62
2022/01/14 15:41:06;;;;;;;;;;;;;;;;;;5048215;28;20276;-63
2022/01/14 15:43:32;;;;;;;;;;;;;;;;;;5047995;28;19913;-62
2022/01/14 15:45:58;;;;;;;;;;;;;;;;;;5047761;28;19920;-62
2022/01/14 15:48:23;;;;;;;;;;;;;;;;;;5048065;28;19912;-62
2022/01/14 15:50:49;;;;;;;;;;;;;;;;;;5048215;28;19916;-63
2022/01/14 15:53:15;;;;;;;;;;;;;;;;;;5047745;28;19917;-61
2022/01/14 15:55:41;;;;;;;;;;;;;;;;;;5030026;28;19920;-60
2022/01/14 15:58:07;;;;;;;;;;;;;;;;;;5047666;28;20420;-61
2022/01/14 16:00:33;;;;;;;;;;;;;;;;;;5047712;28;20011;-62
2022/01/14 16:02:59;;;;;;;;;;;;;;;;;;5047101;28;20343;-61
2022/01/14 16:05:25;;;;;;;;;;;;;;;;;;5047210;28;19912;-60
2022/01/14 16:07:51;;;;;;;;;;;;;;;;;;5047667;28;20268;-62
2022/01/14 16:10:16;;;;;;;;;;;;;;;;;;5029374;28;19960;-60
2022/01/14 16:12:46;;;;;;;;;;;;;;;;;;5047598;28;19921;-62
2022/01/14 16:15:12;;;;;;;;;;;;;;;;;;5047679;28;19948;-61
2022/01/14 16:17:39;;;;;;;;;;;;;;;;;;5048339;28;20442;-62
2022/01/14 16:20:05;;;;;;;;;;;;;;;;;;5047530;28;19923;-62
2022/01/14 16:22:31;;;;;;;;;;;;;;;;;;5047297;28;19946;-62
2022/01/14 16:24:57;;;;;;;;;;;;;;;;;;5047449;28;19909;-60
2022/01/14 16:27:23;;;;;;;;;;;;;;;;;;5029216;28;19913;-63
2022/01/14 16:29:49;;;;;;;;;;;;;;;;;;5046957;28;19937;-59
2022/01/14 16:32:14;;;;;;;;;;;;;;;;;;5029392;28;19916;-66
2022/01/14 16:34:40;;;;;;;;;;;;;;;;;;5047079;28;20296;-62
2022/01/14 16:37:06;;;;;;;;;;;;;;;;;;5047425;28;19999;-57
2022/01/14 16:39:32;;;;;;;;;;;;;;;;;;5029691;28;19913;-61
2022/01/14 16:42:00;;;;;;;;;;;;;;;;;;5047215;28;19978;-63
2022/01/14 16:44:26;;;;;;;;;;;;;;;;;;5047204;28;19912;-61
2022/01/14 16:46:52;;;;;;;;;;;;;;;;;;5046636;28;19909;-61
2022/01/14 16:49:18;;;;;;;;;;;;;;;;;;5047881;28;19916;-62
2022/01/14 16:51:43;;;;;;;;;;;;;;;;;;5047226;28;19913;-62
2022/01/14 16:54:09;;;;;;;;;;;;;;;;;;5047378;28;19917;-63
2022/01/14 16:56:35;;;;;;;;;;;;;;;;;;5047066;28;20421;-59
2022/01/14 16:59:01;;;;;;;;;;;;;;;;;;5047459;28;19955;-62
2022/01/14 17:01:27;;;;;;;;;;;;;;;;;;5047555;28;19924;-61
2022/01/14 17:03:53;;;;;;;;;;;;;;;;;;5047223;28;20061;-62
2022/01/14 17:06:20;;;;;;;;;;;;;;;;;;5047992;28;19964;-60
2022/01/14 17:08:46;;;;;;;;;;;;;;;;;;5048291;28;20299;-62
2022/01/14 17:11:12;;;;;;;;;;;;;;;;;;5048463;28;19908;-60
2022/01/14 17:13:37;;;;;;;;;;;;;;;;;;5047934;28;19913;-59
2022/01/14 17:16:03;;;;;;;;;;;;;;;;;;5048089;28;20329;-58